sensor_id;sensor_type;location;lat;lon;timestamp;pressure;altitude;pressure_sealevel;temperature;humidity
50057;BME280;36875;49.468;11.200;2023-03-24T00:01:38;97135.00;;;19.32;43.67
50057;BME280;36875;49.468;11.200;2023-03-24T00:04:03;97128.41;;;19.33;43.44
50057;BME280;36875;49.468;11.200;2023-03-24T00:06:30;97130.66;;;19.31;43.57
50057;BME280;36875;49.468;11.200;2023-03-24T00:08:58;97127.59;;;19.33;43.60
50057;BME280;36875;49.468;11.200;2023-03-24T00:11:25;97128.72;;;19.32;43.24
50057;BME280;36875;49.468;11.200;2023-03-24T00:13:51;97124.41;;;19.31;43.40
50057;BME280;36875;49.468;11.200;2023-03-24T00:16:17;97122.47;;;19.31;43.60
50057;BME280;36875;49.468;11.200;2023-03-24T00:18:44;97123.25;;;19.32;43.65
50057;BME280;36875;49.468;11.200;2023-03-24T00:21:14;97123.25;;;19.32;43.61
50057;BME280;36875;49.468;11.200;2023-03-24T00:23:41;97120.53;;;19.32;43.22
50057;BME280;36875;49.468;11.200;2023-03-24T00:26:10;97126.81;;;19.32;43.48
50057;BME280;36875;49.468;11.200;2023-03-24T00:28:41;97106.78;;;19.28;43.49
50057;BME280;36875;49.468;11.200;2023-03-24T00:31:08;97115.44;;;19.30;43.51
50057;BME280;36875;49.468;11.200;2023-03-24T00:33:35;97113.81;;;19.29;43.27
50057;BME280;36875;49.468;11.200;2023-03-24T00:36:02;97103.69;;;19.30;43.40
50057;BME280;36875;49.468;11.200;2023-03-24T00:38:28;97106.41;;;19.30;43.50
50057;BME280;36875;49.468;11.200;2023-03-24T00:40:55;97097.44;;;19.29;43.28
50057;BME280;36875;49.468;11.200;2023-03-24T00:43:20;97101.31;;;19.28;43.30
50057;BME280;36875;49.468;11.200;2023-03-24T00:45:46;97099.06;;;19.30;43.60
50057;BME280;36875;49.468;11.200;2023-03-24T00:48:12;97095.84;;;19.28;43.22
50057;BME280;36875;49.468;11.200;2023-03-24T00:50:38;97089.59;;;19.27;43.55
50057;BME280;36875;49.468;11.200;2023-03-24T00:53:04;97102.44;;;19.27;43.69
50057;BME280;36875;49.468;11.200;2023-03-24T00:55:30;97105.94;;;19.27;43.18
50057;BME280;36875;49.468;11.200;2023-03-24T00:57:57;97118.66;;;19.23;43.61
50057;BME280;36875;49.468;11.200;2023-03-24T01:00:26;97121.84;;;19.25;43.69
50057;BME280;36875;49.468;11.200;2023-03-24T01:02:54;97105.47;;;19.25;43.61
50057;BME280;36875;49.468;11.200;2023-03-24T01:05:20;97103.53;;;19.26;43.57
50057;BME280;36875;49.468;11.200;2023-03-24T01:07:46;97094.25;;;19.27;43.29
50057;BME280;36875;49.468;11.200;2023-03-24T01:10:17;97088.31;;;19.25;43.17
50057;BME280;36875;49.468;11.200;2023-03-24T01:12:44;97093.78;;;19.25;43.17
50057;BME280;36875;49.468;11.200;2023-03-24T01:15:13;97092.63;;;19.26;43.49
50057;BME280;36875;49.468;11.200;2023-03-24T01:17:40;97088.97;;;19.22;43.08
50057;BME280;36875;49.468;11.200;2023-03-24T01:20:07;97093.78;;;19.25;43.46
50057;BME280;36875;49.468;11.200;2023-03-24T01:22:35;97093.78;;;19.25;43.66
50057;BME280;36875;49.468;11.200;2023-03-24T01:25:02;97091.38;;;19.23;43.54
50057;BME280;36875;49.468;11.200;2023-03-24T01:27:29;97076.94;;;19.23;43.34
50057;BME280;36875;49.468;11.200;2023-03-24T01:29:57;97082.41;;;19.23;43.49
50057;BME280;36875;49.468;11.200;2023-03-24T01:32:24;97084.28;;;19.22;43.59
50057;BME280;36875;49.468;11.200;2023-03-24T01:34:50;97092.47;;;19.22;43.46
50057;BME280;36875;49.468;11.200;2023-03-24T01:37:15;97095.22;;;19.22;43.32
50057;BME280;36875;49.468;11.200;2023-03-24T01:39:41;97092.47;;;19.22;43.55
50057;BME280;36875;49.468;11.200;2023-03-24T01:42:10;97097.16;;;19.22;43.35
50057;BME280;36875;49.468;11.200;2023-03-24T01:44:41;97099.41;;;19.20;43.33
50057;BME280;36875;49.468;11.200;2023-03-24T01:47:07;97108.06;;;19.22;43.54
50057;BME280;36875;49.468;11.200;2023-03-24T01:49:36;97110.31;;;19.20;43.44
50057;BME280;36875;49.468;11.200;2023-03-24T01:52:06;97124.41;;;19.22;43.49
50057;BME280;36875;49.468;11.200;2023-03-24T01:54:36;97109.50;;;19.19;43.30
50057;BME280;36875;49.468;11.200;2023-03-24T01:57:05;97113.03;;;19.20;43.42
50057;BME280;36875;49.468;11.200;2023-03-24T01:59:34;97097.66;;;19.15;43.22
50057;BME280;36875;49.468;11.200;2023-03-24T02:02:02;97078.22;;;19.17;43.27
50057;BME280;36875;49.468;11.200;2023-03-24T02:04:29;97071.34;;;19.19;43.15
50057;BME280;36875;49.468;11.200;2023-03-24T02:07:02;97060.75;;;19.18;43.68
50057;BME280;36875;49.468;11.200;2023-03-24T02:09:29;97049.84;;;19.18;43.30
50057;BME280;36875;49.468;11.200;2023-03-24T02:11:54;97036.84;;;19.15;43.57
50057;BME280;36875;49.468;11.200;2023-03-24T02:14:20;97034.59;;;19.17;43.65
50057;BME280;36875;49.468;11.200;2023-03-24T02:16:55;97019.69;;;19.14;43.53
50057;BME280;36875;49.468;11.200;2023-03-24T02:19:55;97014.56;;;19.13;43.21
50057;BME280;36875;49.468;11.200;2023-03-24T02:22:52;97023.69;;;19.17;43.50
50057;BME280;36875;49.468;11.200;2023-03-24T02:25:51;97020.16;;;19.16;43.49
50057;BME280;36875;49.468;11.200;2023-03-24T02:28:33;97022.09;;;19.16;43.62
50057;BME280;36875;49.468;11.200;2023-03-24T02:31:22;97018.91;;;19.14;43.50
50057;BME280;36875;49.468;11.200;2023-03-24T02:39:57;96999.34;;;19.12;43.81
50057;BME280;36875;49.468;11.200;2023-03-24T02:42:33;96991.63;;;19.14;43.73
50057;BME280;36875;49.468;11.200;2023-03-24T02:45:11;96984.25;;;19.05;43.33
50057;BME280;36875;49.468;11.200;2023-03-24T02:47:47;96981.81;;;19.13;43.31
50057;BME280;36875;49.468;11.200;2023-03-24T02:50:18;96981.34;;;19.11;43.47
50057;BME280;36875;49.468;11.200;2023-03-24T02:52:50;96982.97;;;19.12;43.53
50057;BME280;36875;49.468;11.200;2023-03-24T02:55:20;96976.69;;;19.11;43.22
50057;BME280;36875;49.468;11.200;2023-03-24T02:57:53;96968.03;;;19.09;43.34
50057;BME280;36875;49.468;11.200;2023-03-24T03:00:25;96962.28;;;19.11;43.52
50057;BME280;36875;49.468;11.200;2023-03-24T03:02:57;96963.38;;;19.10;43.28
50057;BME280;36875;49.468;11.200;2023-03-24T03:05:27;96951.22;;;19.07;43.34
50057;BME280;36875;49.468;11.200;2023-03-24T03:07:57;96948.16;;;19.09;43.37
50057;BME280;36875;49.468;11.200;2023-03-24T03:10:28;96942.25;;;19.06;43.39
50057;BME280;36875;49.468;11.200;2023-03-24T03:12:59;96939.97;;;19.09;43.52
50057;BME280;36875;49.468;11.200;2023-03-24T03:15:28;96935.84;;;19.02;43.67
50057;BME280;36875;49.468;11.200;2023-03-24T03:18:03;96950.91;;;19.09;43.65
50057;BME280;36875;49.468;11.200;2023-03-24T03:20:34;96946.56;;;19.07;43.72
50057;BME280;36875;49.468;11.200;2023-03-24T03:23:05;96943.34;;;19.05;43.52
50057;BME280;36875;49.468;11.200;2023-03-24T03:25:37;96939.06;;;19.04;43.65
50057;BME280;36875;49.468;11.200;2023-03-24T03:28:07;96938.38;;;19.07;43.40
50057;BME280;36875;49.468;11.200;2023-03-24T03:30:39;96932.91;;;19.07;43.44
50057;BME280;36875;49.468;11.200;2023-03-24T03:33:08;96936.00;;;19.06;43.45
50057;BME280;36875;49.468;11.200;2023-03-24T03:35:39;96930.53;;;19.06;43.35
50057;BME280;36875;49.468;11.200;2023-03-24T03:38:12;96927.00;;;19.05;43.48
50057;BME280;36875;49.468;11.200;2023-03-24T03:40:48;96921.06;;;19.03;43.69
50057;BME280;36875;49.468;11.200;2023-03-24T03:43:15;96928.78;;;19.01;43.67
50057;BME280;36875;49.468;11.200;2023-03-24T03:45:41;96935.19;;;19.05;43.74
50057;BME280;36875;49.468;11.200;2023-03-24T03:48:07;96921.53;;;19.05;43.60
50057;BME280;36875;49.468;11.200;2023-03-24T03:50:33;96926.22;;;19.05;43.73
50057;BME280;36875;49.468;11.200;2023-03-24T03:52:59;96923.47;;;19.05;43.59
50057;BME280;36875;49.468;11.200;2023-03-24T03:55:25;96928.16;;;19.04;43.65
50057;BME280;36875;49.468;11.200;2023-03-24T03:57:53;96915.63;;;19.03;43.41
50057;BME280;36875;49.468;11.200;2023-03-24T04:00:20;96917.56;;;19.03;43.62
50057;BME280;36875;49.468;11.200;2023-03-24T04:03:10;96927.69;;;19.02;43.39
50057;BME280;36875;49.468;11.200;2023-03-24T04:05:42;96921.06;;;19.03;43.35
50057;BME280;36875;49.468;11.200;2023-03-24T04:08:22;96927.31;;;19.04;43.50
50057;BME280;36875;49.468;11.200;2023-03-24T04:13:56;96918.69;;;19.02;43.51
50057;BME280;36875;49.468;11.200;2023-03-24T04:16:35;96924.13;;;19.02;43.68
50057;BME280;36875;49.468;11.200;2023-03-24T04:19:15;96918.53;;;18.98;43.56
50057;BME280;36875;49.468;11.200;2023-03-24T04:21:54;96926.06;;;19.01;43.67
50057;BME280;36875;49.468;11.200;2023-03-24T04:24:33;96930.72;;;19.01;43.79
50057;BME280;36875;49.468;11.200;2023-03-24T04:27:06;96919.69;;;18.97;43.34
50057;BME280;36875;49.468;11.200;2023-03-24T04:29:39;96920.94;;;19.00;43.74
50057;BME280;36875;49.468;11.200;2023-03-24T04:32:13;96918.88;;;18.97;43.94
50057;BME280;36875;49.468;11.200;2023-03-24T04:34:46;96924.44;;;19.00;43.77
50057;BME280;36875;49.468;11.200;2023-03-24T04:37:18;96924.44;;;19.00;43.44
50057;BME280;36875;49.468;11.200;2023-03-24T04:39:47;96916.28;;;19.00;43.85
50057;BME280;36875;49.468;11.200;2023-03-24T04:42:18;96910.81;;;19.00;43.37
50057;BME280;36875;49.468;11.200;2023-03-24T04:44:47;96920.13;;;18.99;43.50
50057;BME280;36875;49.468;11.200;2023-03-24T04:47:16;96916.63;;;18.99;43.33
50057;BME280;36875;49.468;11.200;2023-03-24T04:49:43;96913.06;;;18.98;43.38
50057;BME280;36875;49.468;11.200;2023-03-24T04:52:09;96914.69;;;18.99;43.50
50057;BME280;36875;49.468;11.200;2023-03-24T04:54:34;96917.75;;;18.98;43.28
50057;BME280;36875;49.468;11.200;2023-03-24T04:57:00;96917.75;;;18.98;43.70
50057;BME280;36875;49.468;11.200;2023-03-24T04:59:26;96905.25;;;18.97;43.43
50057;BME280;36875;49.468;11.200;2023-03-24T05:01:53;96911.50;;;18.97;43.78
50057;BME280;36875;49.468;11.200;2023-03-24T05:04:20;96918.88;;;18.97;43.79
50057;BME280;36875;49.468;11.200;2023-03-24T05:06:46;96909.88;;;18.96;43.71
50057;BME280;36875;49.468;11.200;2023-03-24T05:09:14;96892.59;;;18.92;43.44
50057;BME280;36875;49.468;11.200;2023-03-24T05:11:39;96898.97;;;18.96;43.48
50057;BME280;36875;49.468;11.200;2023-03-24T05:14:05;96904.44;;;18.96;43.59
50057;BME280;36875;49.468;11.200;2023-03-24T05:16:30;96905.25;;;18.97;43.56
50057;BME280;36875;49.468;11.200;2023-03-24T05:18:57;96892.72;;;18.96;43.46
50057;BME280;36875;49.468;11.200;2023-03-24T05:21:23;96898.19;;;18.96;43.33
50057;BME280;36875;49.468;11.200;2023-03-24T05:23:48;96896.25;;;18.96;43.87
50057;BME280;36875;49.468;11.200;2023-03-24T05:26:14;96898.19;;;18.96;43.40
50057;BME280;36875;49.468;11.200;2023-03-24T05:28:39;96902.84;;;18.95;43.48
50057;BME280;36875;49.468;11.200;2023-03-24T05:31:05;96902.84;;;18.95;43.84
50057;BME280;36875;49.468;11.200;2023-03-24T05:33:31;96896.09;;;18.93;43.66
50057;BME280;36875;49.468;11.200;2023-03-24T05:35:58;96893.53;;;18.96;43.47
50057;BME280;36875;49.468;11.200;2023-03-24T05:38:23;96892.59;;;18.92;43.92
50057;BME280;36875;49.468;11.200;2023-03-24T05:40:49;96897.41;;;18.95;43.66
50057;BME280;36875;49.468;11.200;2023-03-24T05:43:14;96897.41;;;18.95;43.51
50057;BME280;36875;49.468;11.200;2023-03-24T05:45:40;96891.94;;;18.95;43.40
50057;BME280;36875;49.468;11.200;2023-03-24T05:48:05;96899.66;;;18.93;43.49
50057;BME280;36875;49.468;11.200;2023-03-24T05:50:31;96897.41;;;18.95;43.77
50057;BME280;36875;49.468;11.200;2023-03-24T05:52:59;96905.91;;;18.94;43.85
50057;BME280;36875;49.468;11.200;2023-03-24T05:55:25;96902.03;;;18.95;43.67
50057;BME280;36875;49.468;11.200;2023-03-24T05:57:50;96912.94;;;18.95;43.35
50057;BME280;36875;49.468;11.200;2023-03-24T06:00:17;96919.53;;;18.94;43.34
50057;BME280;36875;49.468;11.200;2023-03-24T06:02:43;96920.31;;;18.94;43.70
50057;BME280;36875;49.468;11.200;2023-03-24T06:05:09;96919.84;;;18.92;43.62
50057;BME280;36875;49.468;11.200;2023-03-24T06:07:37;96936.22;;;18.92;43.59
50057;BME280;36875;49.468;11.200;2023-03-24T06:10:05;96938.63;;;18.94;43.43
50057;BME280;36875;49.468;11.200;2023-03-24T06:12:32;96937.81;;;18.93;43.61
50057;BME280;36875;49.468;11.200;2023-03-24T06:14:57;96936.69;;;18.94;43.15
50057;BME280;36875;49.468;11.200;2023-03-24T06:17:23;96927.56;;;18.90;43.37
50057;BME280;36875;49.468;11.200;2023-03-24T06:19:49;96930.75;;;18.92;43.23
50057;BME280;36875;49.468;11.200;2023-03-24T06:22:15;96926.91;;;18.93;43.62
50057;BME280;36875;49.468;11.200;2023-03-24T06:24:41;96925.31;;;18.92;43.30
50057;BME280;36875;49.468;11.200;2023-03-24T06:27:08;96920.66;;;18.93;43.47
50057;BME280;36875;49.468;11.200;2023-03-24T06:29:34;96925.78;;;18.94;43.68
50057;BME280;36875;49.468;11.200;2023-03-24T06:32:00;96913.28;;;18.93;43.59
50057;BME280;36875;49.468;11.200;2023-03-24T06:34:26;96924.66;;;18.95;43.95
50057;BME280;36875;49.468;11.200;2023-03-24T06:36:53;96916.47;;;18.95;43.84
50057;BME280;36875;49.468;11.200;2023-03-24T06:39:19;96920.50;;;18.89;44.01
50057;BME280;36875;49.468;11.200;2023-03-24T06:41:44;96922.28;;;18.85;43.93
50057;BME280;36875;49.468;11.200;2023-03-24T06:44:11;96931.25;;;18.85;43.88
50057;BME280;36875;49.468;11.200;2023-03-24T06:46:37;96940.09;;;18.82;44.32
50057;BME280;36875;49.468;11.200;2023-03-24T06:49:02;96951.81;;;18.83;44.36
50057;BME280;36875;49.468;11.200;2023-03-24T06:51:28;96946.50;;;18.78;44.25
50057;BME280;36875;49.468;11.200;2023-03-24T06:53:53;96960.59;;;18.80;44.15
50057;BME280;36875;49.468;11.200;2023-03-24T06:56:19;96980.00;;;18.78;44.28
50057;BME280;36875;49.468;11.200;2023-03-24T06:58:46;96991.72;;;18.79;44.17
50057;BME280;36875;49.468;11.200;2023-03-24T07:01:13;97001.78;;;18.78;44.38
50057;BME280;36875;49.468;11.200;2023-03-24T07:03:39;97013.53;;;18.79;44.46
50057;BME280;36875;49.468;11.200;2023-03-24T07:06:07;97005.66;;;18.77;44.44
50057;BME280;36875;49.468;11.200;2023-03-24T07:08:33;97007.91;;;18.75;44.50
50057;BME280;36875;49.468;11.200;2023-03-24T07:10:59;96998.59;;;18.76;44.88
50057;BME280;36875;49.468;11.200;2023-03-24T07:13:26;97017.84;;;18.80;44.85
50057;BME280;36875;49.468;11.200;2023-03-24T07:15:52;97018.97;;;18.79;45.25
50057;BME280;36875;49.468;11.200;2023-03-24T07:18:22;97029.88;;;18.79;44.80
50057;BME280;36875;49.468;11.200;2023-03-24T07:20:47;97024.28;;;18.75;44.99
50057;BME280;36875;49.468;11.200;2023-03-24T07:23:12;97019.28;;;18.77;45.12
50057;BME280;36875;49.468;11.200;2023-03-24T07:25:39;97020.25;;;18.73;44.91
50057;BME280;36875;49.468;11.200;2023-03-24T07:28:04;97025.84;;;18.76;45.08
50057;BME280;36875;49.468;11.200;2023-03-24T07:30:30;97029.41;;;18.77;45.25
50057;BME280;36875;49.468;11.200;2023-03-24T07:32:55;97025.06;;;18.76;44.80
50057;BME280;36875;49.468;11.200;2023-03-24T07:35:22;97024.28;;;18.75;44.96
50057;BME280;36875;49.468;11.200;2023-03-24T07:37:48;97029.88;;;18.79;45.05
50057;BME280;36875;49.468;11.200;2023-03-24T07:40:14;97034.84;;;18.85;45.15
50057;BME280;36875;49.468;11.200;2023-03-24T07:42:41;97038.03;;;18.96;45.22
50057;BME280;36875;49.468;11.200;2023-03-24T07:45:07;97042.97;;;19.12;45.07
50057;BME280;36875;49.468;11.200;2023-03-24T07:47:34;97038.06;;;19.26;44.72
50057;BME280;36875;49.468;11.200;2023-03-24T07:50:00;97034.03;;;19.41;44.17
50057;BME280;36875;49.468;11.200;2023-03-24T07:52:29;97030.88;;;19.60;44.26
50057;BME280;36875;49.468;11.200;2023-03-24T07:54:55;97026.00;;;19.74;43.69
50057;BME280;36875;49.468;11.200;2023-03-24T07:57:20;97043.53;;;19.94;43.52
50057;BME280;36875;49.468;11.200;2023-03-24T07:59:47;97034.88;;;20.13;43.13
50057;BME280;36875;49.468;11.200;2023-03-24T08:02:16;97032.69;;;20.28;42.98
50057;BME280;36875;49.468;11.200;2023-03-24T08:04:41;97029.19;;;20.39;42.80
50057;BME280;36875;49.468;11.200;2023-03-24T08:07:07;97014.69;;;20.48;42.42
50057;BME280;36875;49.468;11.200;2023-03-24T08:09:34;97011.47;;;20.67;42.50
50057;BME280;36875;49.468;11.200;2023-03-24T08:12:00;97024.34;;;20.78;42.08
50057;BME280;36875;49.468;11.200;2023-03-24T08:14:25;97023.13;;;20.88;42.00
50057;BME280;36875;49.468;11.200;2023-03-24T08:16:51;97022.22;;;20.96;41.91
50057;BME280;36875;49.468;11.200;2023-03-24T08:19:16;97020.91;;;21.03;41.76
50057;BME280;36875;49.468;11.200;2023-03-24T08:21:42;97020.66;;;21.08;41.65
50057;BME280;36875;49.468;11.200;2023-03-24T08:24:07;97012.22;;;21.13;41.68
50057;BME280;36875;49.468;11.200;2023-03-24T08:26:34;97013.84;;;21.14;41.77
50057;BME280;36875;49.468;11.200;2023-03-24T08:29:00;97020.03;;;20.77;42.76
50057;BME280;36875;49.468;11.200;2023-03-24T08:31:30;97024.63;;;20.31;43.74
50057;BME280;36875;49.468;11.200;2023-03-24T08:33:56;97024.88;;;20.17;44.24
50057;BME280;36875;49.468;11.200;2023-03-24T08:36:21;97028.28;;;20.14;44.41
50057;BME280;36875;49.468;11.200;2023-03-24T08:38:50;97031.00;;;20.14;44.30
50057;BME280;36875;49.468;11.200;2023-03-24T08:41:19;97032.94;;;20.14;44.73
50057;BME280;36875;49.468;11.200;2023-03-24T08:43:45;97030.41;;;20.09;44.87
50057;BME280;36875;49.468;11.200;2023-03-24T08:46:11;97032.16;;;20.13;44.69
50057;BME280;36875;49.468;11.200;2023-03-24T08:48:37;97036.00;;;20.12;44.43
50057;BME280;36875;49.468;11.200;2023-03-24T08:51:10;97046.94;;;20.12;45.02
50057;BME280;36875;49.468;11.200;2023-03-24T08:53:35;97053.22;;;20.13;44.66
50057;BME280;36875;49.468;11.200;2023-03-24T08:56:01;97049.66;;;20.12;44.76
50057;BME280;36875;49.468;11.200;2023-03-24T08:58:26;97052.38;;;20.12;45.00
50057;BME280;36875;49.468;11.200;2023-03-24T09:00:53;97057.19;;;20.15;44.99
50057;BME280;36875;49.468;11.200;2023-03-24T09:03:19;97060.41;;;20.17;44.91
50057;BME280;36875;49.468;11.200;2023-03-24T09:05:46;97062.34;;;20.17;44.90
50057;BME280;36875;49.468;11.200;2023-03-24T09:08:13;97064.28;;;20.16;45.00
50057;BME280;36875;49.468;11.200;2023-03-24T09:10:39;97060.25;;;20.14;44.87
50057;BME280;36875;49.468;11.200;2023-03-24T09:13:05;97063.13;;;20.17;44.95
50057;BME280;36875;49.468;11.200;2023-03-24T09:15:30;97068.91;;;20.16;45.21
50057;BME280;36875;49.468;11.200;2023-03-24T09:17:57;97075.66;;;20.18;45.21
50057;BME280;36875;49.468;11.200;2023-03-24T09:20:23;97075.66;;;20.18;45.43
50057;BME280;36875;49.468;11.200;2023-03-24T09:22:49;97077.56;;;20.18;45.42
50057;BME280;36875;49.468;11.200;2023-03-24T09:25:16;97074.06;;;20.17;45.81
50057;BME280;36875;49.468;11.200;2023-03-24T09:27:42;97078.72;;;20.17;45.51
50057;BME280;36875;49.468;11.200;2023-03-24T09:30:10;97074.38;;;20.16;45.38
50057;BME280;36875;49.468;11.200;2023-03-24T09:32:37;97066.88;;;20.13;45.94
50057;BME280;36875;49.468;11.200;2023-03-24T09:35:04;97071.50;;;20.12;45.50
50057;BME280;36875;49.468;11.200;2023-03-24T09:37:32;97064.94;;;20.13;45.57
50057;BME280;36875;49.468;11.200;2023-03-24T09:39:58;97063.44;;;20.16;45.69
50057;BME280;36875;49.468;11.200;2023-03-24T09:42:27;97061.19;;;20.18;45.73
50057;BME280;36875;49.468;11.200;2023-03-24T09:44:56;97046.75;;;20.17;45.74
50057;BME280;36875;49.468;11.200;2023-03-24T09:47:27;97018.31;;;20.18;45.77
50057;BME280;36875;49.468;11.200;2023-03-24T09:49:55;97000.16;;;20.14;45.62
50057;BME280;36875;49.468;11.200;2023-03-24T09:52:28;97072.72;;;20.23;45.63
50057;BME280;36875;49.468;11.200;2023-03-24T09:54:57;97060.66;;;20.25;45.65
50057;BME280;36875;49.468;11.200;2023-03-24T09:57:25;97049.75;;;20.25;45.47
50057;BME280;36875;49.468;11.200;2023-03-24T09:59:53;97063.88;;;20.27;45.68
50057;BME280;36875;49.468;11.200;2023-03-24T10:02:20;97056.81;;;20.26;45.58
50057;BME280;36875;49.468;11.200;2023-03-24T10:04:47;97043.94;;;20.26;45.69
50057;BME280;36875;49.468;11.200;2023-03-24T10:07:18;97044.28;;;20.25;45.88
50057;BME280;36875;49.468;11.200;2023-03-24T10:09:55;97057.47;;;20.22;45.60
50057;BME280;36875;49.468;11.200;2023-03-24T10:12:31;97053.13;;;20.64;44.77
50057;BME280;36875;49.468;11.200;2023-03-24T10:15:13;97060.13;;;20.73;44.52
50057;BME280;36875;49.468;11.200;2023-03-24T10:17:47;97064.38;;;20.62;44.64
50057;BME280;36875;49.468;11.200;2023-03-24T10:20:26;97054.44;;;21.36;43.29
50057;BME280;36875;49.468;11.200;2023-03-24T10:22:59;97058.44;;;20.81;44.49
50057;BME280;36875;49.468;11.200;2023-03-24T10:25:36;97061.47;;;20.46;44.85
50057;BME280;36875;49.468;11.200;2023-03-24T10:28:11;97057.53;;;20.35;45.29
50057;BME280;36875;49.468;11.200;2023-03-24T10:30:42;97063.19;;;20.30;45.46
50057;BME280;36875;49.468;11.200;2023-03-24T10:33:09;97069.97;;;20.23;45.60
50057;BME280;36875;49.468;11.200;2023-03-24T10:35:38;97064.75;;;20.18;45.81
50057;BME280;36875;49.468;11.200;2023-03-24T10:38:08;97065.41;;;20.15;46.24
50057;BME280;36875;49.468;11.200;2023-03-24T10:40:39;97059.38;;;20.43;45.88
50057;BME280;36875;49.468;11.200;2023-03-24T10:43:05;97049.34;;;20.35;45.58
50057;BME280;36875;49.468;11.200;2023-03-24T10:45:32;97051.13;;;20.31;46.14
50057;BME280;36875;49.468;11.200;2023-03-24T10:48:00;97046.03;;;20.29;45.80
50057;BME280;36875;49.468;11.200;2023-03-24T10:50:28;97052.59;;;20.28;45.69
50057;BME280;36875;49.468;11.200;2023-03-24T10:52:54;97063.66;;;20.32;46.14
50057;BME280;36875;49.468;11.200;2023-03-24T10:55:21;97061.25;;;20.30;46.22
50057;BME280;36875;49.468;11.200;2023-03-24T10:57:52;97052.28;;;20.30;45.92
50057;BME280;36875;49.468;11.200;2023-03-24T11:00:21;97052.28;;;20.30;46.00
50057;BME280;36875;49.468;11.200;2023-03-24T11:02:56;97059.19;;;20.27;46.16
50057;BME280;36875;49.468;11.200;2023-03-24T11:05:27;97056.69;;;20.22;46.14
50057;BME280;36875;49.468;11.200;2023-03-24T11:07:57;97055.66;;;20.27;46.13
50057;BME280;36875;49.468;11.200;2023-03-24T11:10:25;97056.31;;;20.23;45.75
50057;BME280;36875;49.468;11.200;2023-03-24T11:13:01;97061.91;;;20.27;45.99
50057;BME280;36875;49.468;11.200;2023-03-24T11:15:30;97052.34;;;20.21;45.94
50057;BME280;36875;49.468;11.200;2023-03-24T11:17:58;97065.66;;;20.22;46.02
50057;BME280;36875;49.468;11.200;2023-03-24T11:20:28;97066.78;;;20.21;46.10
50057;BME280;36875;49.468;11.200;2023-03-24T11:22:56;97053.81;;;20.18;46.26
50057;BME280;36875;49.468;11.200;2023-03-24T11:25:27;97059.47;;;20.13;45.92
50057;BME280;36875;49.468;11.200;2023-03-24T11:27:58;97059.13;;;20.15;46.16
50057;BME280;36875;49.468;11.200;2023-03-24T11:30:27;97051.75;;;20.15;45.99
50057;BME280;36875;49.468;11.200;2023-03-24T11:32:55;97034.88;;;20.13;46.07
50057;BME280;36875;49.468;11.200;2023-03-24T11:35:21;97035.88;;;20.09;46.08
50057;BME280;36875;49.468;11.200;2023-03-24T11:37:47;97039.19;;;20.14;45.91
50057;BME280;36875;49.468;11.200;2023-03-24T11:40:16;97021.56;;;20.12;45.95
50057;BME280;36875;49.468;11.200;2023-03-24T11:42:44;97026.56;;;20.10;45.79
50057;BME280;36875;49.468;11.200;2023-03-24T11:45:20;97017.63;;;20.00;45.88
50057;BME280;36875;49.468;11.200;2023-03-24T11:47:49;97025.91;;;20.13;46.11
50057;BME280;36875;49.468;11.200;2023-03-24T11:50:17;97018.81;;;20.12;46.21
50057;BME280;36875;49.468;11.200;2023-03-24T11:52:48;97016.56;;;20.14;46.17
50057;BME280;36875;49.468;11.200;2023-03-24T11:55:23;97011.22;;;20.17;46.41
50057;BME280;36875;49.468;11.200;2023-03-24T11:57:55;97012.97;;;20.22;46.01
50057;BME280;36875;49.468;11.200;2023-03-24T12:00:26;97017.97;;;20.20;46.30
50057;BME280;36875;49.468;11.200;2023-03-24T12:03:12;97016.03;;;20.20;46.16
50057;BME280;36875;49.468;11.200;2023-03-24T12:05:46;97014.28;;;20.16;46.33
50057;BME280;36875;49.468;11.200;2023-03-24T12:08:22;97009.50;;;20.13;46.25
50057;BME280;36875;49.468;11.200;2023-03-24T12:11:03;97011.56;;;20.16;46.23
50057;BME280;36875;49.468;11.200;2023-03-24T12:13:33;97008.03;;;20.15;46.40
50057;BME280;36875;49.468;11.200;2023-03-24T12:16:10;96987.53;;;20.09;46.50
50057;BME280;36875;49.468;11.200;2023-03-24T12:18:51;96983.06;;;20.05;46.10
50057;BME280;36875;49.468;11.200;2023-03-24T12:21:26;96989.94;;;20.11;46.27
50057;BME280;36875;49.468;11.200;2023-03-24T12:23:58;96987.06;;;20.07;46.23
50057;BME280;36875;49.468;11.200;2023-03-24T12:26:27;96977.25;;;20.06;46.34
50057;BME280;36875;49.468;11.200;2023-03-24T12:28:59;96982.72;;;20.06;46.32
50057;BME280;36875;49.468;11.200;2023-03-24T12:34:40;96980.31;;;20.05;46.52
50057;BME280;36875;49.468;11.200;2023-03-24T12:37:14;96978.88;;;20.07;46.69
50057;BME280;36875;49.468;11.200;2023-03-24T12:39:53;96973.06;;;20.09;46.33
50057;BME280;36875;49.468;11.200;2023-03-24T12:42:22;96964.53;;;20.10;46.18
50057;BME280;36875;49.468;11.200;2023-03-24T12:45:11;96957.47;;;20.09;46.66
50057;BME280;36875;49.468;11.200;2023-03-24T12:47:58;96966.78;;;20.08;46.71
50057;BME280;36875;49.468;11.200;2023-03-24T12:50:35;96959.41;;;20.09;46.35
50057;BME280;36875;49.468;11.200;2023-03-24T12:53:21;96953.47;;;20.07;46.72
50057;BME280;36875;49.468;11.200;2023-03-24T12:55:53;96949.16;;;20.06;46.67
50057;BME280;36875;49.468;11.200;2023-03-24T12:58:24;96936.63;;;20.05;46.52
50057;BME280;36875;49.468;11.200;2023-03-24T13:01:00;96930.81;;;20.06;46.51
50057;BME280;36875;49.468;11.200;2023-03-24T13:03:33;96924.56;;;20.06;46.10
50057;BME280;36875;49.468;11.200;2023-03-24T13:06:12;96919.56;;;20.08;46.53
50057;BME280;36875;49.468;11.200;2023-03-24T13:08:42;96909.31;;;20.05;46.42
50057;BME280;36875;49.468;11.200;2023-03-24T13:11:11;96913.97;;;20.04;46.38
50057;BME280;36875;49.468;11.200;2023-03-24T13:13:41;96901.00;;;20.01;46.62